sensor_id;sensor_type;location;lat;lon;timestamp;noise_LAeq;noise_LA_min;noise_LA_max;noise_LA01;noise_LA95
58197;Laerm;43999;51.660;5.616;2022-08-27T00:01:59;45.32;37.88;57.40;;
58197;Laerm;43999;51.660;5.616;2022-08-27T00:04:27;53.47;38.05;69.78;;
58197;Laerm;43999;51.660;5.616;2022-08-27T00:06:54;51.89;38.52;67.05;;
58197;Laerm;43999;51.660;5.616;2022-08-27T00:09:24;53.70;39.08;66.98;;
58197;Laerm;43999;51.660;5.616;2022-08-27T00:11:55;65.50;38.52;89.77;;
58197;Laerm;43999;51.660;5.616;2022-08-27T00:14:26;55.04;39.21;69.18;;
58197;Laerm;43999;51.660;5.616;2022-08-27T00:16:55;51.37;38.21;68.12;;
58197;Laerm;43999;51.660;5.616;2022-08-27T00:19:24;50.16;38.37;65.63;;
58197;Laerm;43999;51.660;5.616;2022-08-27T00:21:52;48.66;39.08;61.50;;
58197;Laerm;43999;51.660;5.616;2022-08-27T00:24:19;51.97;39.58;63.37;;
58197;Laerm;43999;51.660;5.616;2022-08-27T00:26:46;59.31;39.08;76.84;;
58197;Laerm;43999;51.660;5.616;2022-08-27T00:29:14;47.28;38.81;66.65;;
58197;Laerm;43999;51.660;5.616;2022-08-27T00:31:41;50.79;40.03;64.57;;
58197;Laerm;43999;51.660;5.616;2022-08-27T00:34:09;54.54;40.33;65.50;;
58197;Laerm;43999;51.660;5.616;2022-08-27T00:36:40;55.26;39.58;83.86;;
58197;Laerm;43999;51.660;5.616;2022-08-27T00:39:08;42.23;38.21;51.56;;
58197;Laerm;43999;51.660;5.616;2022-08-27T00:41:38;54.29;38.67;68.56;;
58197;Laerm;43999;51.660;5.616;2022-08-27T00:44:06;44.11;38.05;60.75;;
58197;Laerm;43999;51.660;5.616;2022-08-27T00:46:45;59.54;38.37;76.63;;
58197;Laerm;43999;51.660;5.616;2022-08-27T00:50:10;60.37;39.81;83.90;;
58197;Laerm;43999;51.660;5.616;2022-08-27T00:52:55;54.64;37.88;68.96;;
58197;Laerm;43999;51.660;5.616;2022-08-27T00:55:32;51.45;39.34;65.95;;
58197;Laerm;43999;51.660;5.616;2022-08-27T00:58:27;43.65;38.67;61.87;;
58197;Laerm;43999;51.660;5.616;2022-08-27T01:00:57;44.92;38.05;58.71;;
58197;Laerm;43999;51.660;5.616;2022-08-27T01:03:26;41.62;38.21;44.62;;
58197;Laerm;43999;51.660;5.616;2022-08-27T01:05:58;50.39;36.20;71.94;;
58197;Laerm;43999;51.660;5.616;2022-08-27T01:08:33;54.48;38.05;71.29;;
58197;Laerm;43999;51.660;5.616;2022-08-27T01:11:05;42.67;38.37;50.90;;
58197;Laerm;43999;51.660;5.616;2022-08-27T01:13:42;48.57;37.53;62.42;;
58197;Laerm;43999;51.660;5.616;2022-08-27T01:16:36;47.03;38.21;62.40;;
58197;Laerm;43999;51.660;5.616;2022-08-27T01:25:12;51.60;38.52;63.48;;
58197;Laerm;43999;51.660;5.616;2022-08-27T01:27:43;49.89;39.11;68.51;;
58197;Laerm;43999;51.660;5.616;2022-08-27T01:30:17;52.27;38.21;65.80;;
58197;Laerm;43999;51.660;5.616;2022-08-27T01:32:47;52.06;39.70;65.85;;
58197;Laerm;43999;51.660;5.616;2022-08-27T01:35:16;41.56;38.05;43.39;;
58197;Laerm;43999;51.660;5.616;2022-08-27T01:37:49;48.38;39.34;64.38;;
58197;Laerm;43999;51.660;5.616;2022-08-27T01:40:20;46.25;38.95;63.56;;
58197;Laerm;43999;51.660;5.616;2022-08-27T01:42:52;50.17;39.34;61.84;;
58197;Laerm;43999;51.660;5.616;2022-08-27T01:45:32;49.50;38.81;66.01;;
58197;Laerm;43999;51.660;5.616;2022-08-27T01:48:00;48.67;38.67;62.83;;
58197;Laerm;43999;51.660;5.616;2022-08-27T01:50:36;50.52;38.95;67.33;;
58197;Laerm;43999;51.660;5.616;2022-08-27T01:53:12;42.04;39.21;45.54;;
58197;Laerm;43999;51.660;5.616;2022-08-27T01:55:43;50.53;39.08;65.05;;
58197;Laerm;43999;51.660;5.616;2022-08-27T01:58:15;42.01;38.87;52.03;;
58197;Laerm;43999;51.660;5.616;2022-08-27T02:00:48;49.58;39.46;63.73;;
58197;Laerm;43999;51.660;5.616;2022-08-27T02:03:24;52.16;38.95;72.11;;
58197;Laerm;43999;51.660;5.616;2022-08-27T02:05:52;50.91;38.52;63.14;;
58197;Laerm;43999;51.660;5.616;2022-08-27T02:08:20;46.89;37.70;60.34;;
58197;Laerm;43999;51.660;5.616;2022-08-27T02:10:49;47.97;35.04;64.07;;
58197;Laerm;43999;51.660;5.616;2022-08-27T02:13:17;49.33;37.52;63.84;;
58197;Laerm;43999;51.660;5.616;2022-08-27T02:15:45;55.21;36.69;76.19;;
58197;Laerm;43999;51.660;5.616;2022-08-27T02:18:13;42.95;37.32;57.88;;
58197;Laerm;43999;51.660;5.616;2022-08-27T02:20:45;48.50;37.12;62.55;;
58197;Laerm;43999;51.660;5.616;2022-08-27T02:23:15;49.78;37.70;63.90;;
58197;Laerm;43999;51.660;5.616;2022-08-27T02:25:43;46.68;38.52;64.51;;
58197;Laerm;43999;51.660;5.616;2022-08-27T02:28:14;53.15;38.37;69.38;;
58197;Laerm;43999;51.660;5.616;2022-08-27T02:30:42;59.75;36.69;76.91;;
58197;Laerm;43999;51.660;5.616;2022-08-27T02:33:10;50.35;37.70;66.67;;
58197;Laerm;43999;51.660;5.616;2022-08-27T02:35:39;51.67;39.46;65.98;;
58197;Laerm;43999;51.660;5.616;2022-08-27T02:38:11;53.64;38.37;72.72;;
58197;Laerm;43999;51.660;5.616;2022-08-27T02:40:40;41.50;38.67;47.50;;
58197;Laerm;43999;51.660;5.616;2022-08-27T02:43:08;53.03;38.52;72.89;;
58197;Laerm;43999;51.660;5.616;2022-08-27T02:45:38;52.52;38.67;72.00;;
58197;Laerm;43999;51.660;5.616;2022-08-27T02:48:06;41.92;37.12;50.99;;
58197;Laerm;43999;51.660;5.616;2022-08-27T02:50:35;48.74;37.70;67.27;;
58197;Laerm;43999;51.660;5.616;2022-08-27T02:53:05;41.34;37.70;53.49;;
58197;Laerm;43999;51.660;5.616;2022-08-27T02:55:33;50.67;38.05;66.70;;
58197;Laerm;43999;51.660;5.616;2022-08-27T02:58:03;41.33;37.32;55.31;;
58197;Laerm;43999;51.660;5.616;2022-08-27T03:00:32;41.43;36.20;55.33;;
58197;Laerm;43999;51.660;5.616;2022-08-27T03:03:01;42.33;37.88;54.08;;
58197;Laerm;43999;51.660;5.616;2022-08-27T03:05:29;46.20;38.05;63.07;;
58197;Laerm;43999;51.660;5.616;2022-08-27T03:07:56;63.75;39.81;79.26;;
58197;Laerm;43999;51.660;5.616;2022-08-27T03:10:25;46.43;39.08;58.74;;
58197;Laerm;43999;51.660;5.616;2022-08-27T03:12:52;50.49;38.81;76.06;;
58197;Laerm;43999;51.660;5.616;2022-08-27T03:15:20;42.83;38.67;56.96;;
58197;Laerm;43999;51.660;5.616;2022-08-27T03:17:48;54.17;38.95;74.53;;
58197;Laerm;43999;51.660;5.616;2022-08-27T03:20:42;52.04;38.81;68.46;;
58197;Laerm;43999;51.660;5.616;2022-08-27T03:23:12;45.02;38.99;66.93;;
58197;Laerm;43999;51.660;5.616;2022-08-27T03:25:49;47.91;39.58;66.85;;
58197;Laerm;43999;51.660;5.616;2022-08-27T03:28:23;49.09;39.34;66.65;;
58197;Laerm;43999;51.660;5.616;2022-08-27T03:30:57;43.49;38.81;54.67;;
58197;Laerm;43999;51.660;5.616;2022-08-27T03:33:36;41.85;38.81;44.69;;
58197;Laerm;43999;51.660;5.616;2022-08-27T03:36:06;43.21;38.81;53.37;;
58197;Laerm;43999;51.660;5.616;2022-08-27T03:38:35;42.40;38.95;46.66;;
58197;Laerm;43999;51.660;5.616;2022-08-27T03:41:04;51.48;38.52;64.51;;
58197;Laerm;43999;51.660;5.616;2022-08-27T03:43:32;43.52;38.74;53.63;;
58197;Laerm;43999;51.660;5.616;2022-08-27T03:45:59;58.64;38.52;79.05;;
58197;Laerm;43999;51.660;5.616;2022-08-27T03:48:31;55.00;39.34;68.87;;
58197;Laerm;43999;51.660;5.616;2022-08-27T03:51:06;48.46;39.34;63.49;;
58197;Laerm;43999;51.660;5.616;2022-08-27T03:53:37;55.87;38.81;73.17;;
58197;Laerm;43999;51.660;5.616;2022-08-27T03:56:05;56.95;38.81;76.55;;
58197;Laerm;43999;51.660;5.616;2022-08-27T03:58:35;52.34;38.52;70.62;;
58197;Laerm;43999;51.660;5.616;2022-08-27T04:01:06;45.66;38.52;61.69;;
58197;Laerm;43999;51.660;5.616;2022-08-27T04:03:36;50.06;38.67;67.90;;
58197;Laerm;43999;51.660;5.616;2022-08-27T04:06:04;43.34;38.67;54.70;;
58197;Laerm;43999;51.660;5.616;2022-08-27T04:08:32;44.02;39.23;53.26;;
58197;Laerm;43999;51.660;5.616;2022-08-27T04:10:59;42.14;39.21;46.62;;
58197;Laerm;43999;51.660;5.616;2022-08-27T04:13:26;43.22;38.95;59.03;;
58197;Laerm;43999;51.660;5.616;2022-08-27T04:15:54;52.40;39.81;70.08;;
58197;Laerm;43999;51.660;5.616;2022-08-27T04:18:22;44.56;39.21;56.92;;
58197;Laerm;43999;51.660;5.616;2022-08-27T04:20:51;52.19;39.81;65.83;;
58197;Laerm;43999;51.660;5.616;2022-08-27T04:23:21;49.48;38.81;65.23;;
58197;Laerm;43999;51.660;5.616;2022-08-27T04:25:49;49.98;39.34;66.09;;
58197;Laerm;43999;51.660;5.616;2022-08-27T04:28:16;47.44;39.34;63.66;;
58197;Laerm;43999;51.660;5.616;2022-08-27T04:30:45;56.63;40.62;68.08;;
58197;Laerm;43999;51.660;5.616;2022-08-27T04:33:14;54.51;39.34;71.38;;
58197;Laerm;43999;51.660;5.616;2022-08-27T04:35:42;57.73;40.43;74.47;;
58197;Laerm;43999;51.660;5.616;2022-08-27T04:38:10;52.11;40.03;65.77;;
58197;Laerm;43999;51.660;5.616;2022-08-27T04:40:41;52.37;40.03;65.43;;
58197;Laerm;43999;51.660;5.616;2022-08-27T04:43:27;50.06;40.33;67.73;;
58197;Laerm;43999;51.660;5.616;2022-08-27T04:45:57;58.01;41.22;71.38;;
58197;Laerm;43999;51.660;5.616;2022-08-27T04:48:25;50.26;40.62;67.25;;
58197;Laerm;43999;51.660;5.616;2022-08-27T04:50:52;45.24;40.13;53.29;;
58197;Laerm;43999;51.660;5.616;2022-08-27T04:53:20;62.42;44.11;75.48;;
58197;Laerm;43999;51.660;5.616;2022-08-27T04:55:53;61.08;40.71;79.18;;
58197;Laerm;43999;51.660;5.616;2022-08-27T04:58:24;53.43;40.43;70.17;;
58197;Laerm;43999;51.660;5.616;2022-08-27T05:00:56;51.92;39.70;64.62;;
58197;Laerm;43999;51.660;5.616;2022-08-27T05:03:27;50.32;39.46;66.14;;
58197;Laerm;43999;51.660;5.616;2022-08-27T05:06:05;52.39;40.53;64.94;;
58197;Laerm;43999;51.660;5.616;2022-08-27T05:08:33;53.59;40.23;69.61;;
58197;Laerm;43999;51.660;5.616;2022-08-27T05:11:01;49.83;40.13;61.67;;
58197;Laerm;43999;51.660;5.616;2022-08-27T05:13:29;50.70;39.92;64.36;;
58197;Laerm;43999;51.660;5.616;2022-08-27T05:16:07;55.58;41.46;69.00;;
58197;Laerm;43999;51.660;5.616;2022-08-27T05:18:37;48.41;40.43;63.23;;
58197;Laerm;43999;51.660;5.616;2022-08-27T05:21:31;55.23;40.43;69.52;;
58197;Laerm;43999;51.660;5.616;2022-08-27T05:24:02;54.38;42.41;69.63;;
58197;Laerm;43999;51.660;5.616;2022-08-27T05:26:34;52.23;39.46;63.62;;
58197;Laerm;43999;51.660;5.616;2022-08-27T05:29:04;52.68;40.13;66.27;;
58197;Laerm;43999;51.660;5.616;2022-08-27T05:31:33;50.66;42.13;60.93;;
58197;Laerm;43999;51.660;5.616;2022-08-27T05:34:01;54.57;40.98;67.39;;
58197;Laerm;43999;51.660;5.616;2022-08-27T05:36:36;57.37;40.98;75.85;;
58197;Laerm;43999;51.660;5.616;2022-08-27T05:39:15;55.90;41.22;69.54;;
58197;Laerm;43999;51.660;5.616;2022-08-27T05:41:45;44.06;40.23;54.77;;
58197;Laerm;43999;51.660;5.616;2022-08-27T05:44:13;54.65;40.71;70.02;;
58197;Laerm;43999;51.660;5.616;2022-08-27T05:47:02;59.72;41.96;82.26;;
58197;Laerm;43999;51.660;5.616;2022-08-27T05:49:30;56.85;42.03;68.18;;
58197;Laerm;43999;51.660;5.616;2022-08-27T05:51:58;52.75;41.96;65.38;;
58197;Laerm;43999;51.660;5.616;2022-08-27T05:54:26;55.15;41.30;70.52;;
58197;Laerm;43999;51.660;5.616;2022-08-27T05:56:53;57.43;40.62;68.73;;
58197;Laerm;43999;51.660;5.616;2022-08-27T05:59:21;58.78;41.38;76.58;;
58197;Laerm;43999;51.660;5.616;2022-08-27T06:02:07;59.60;42.29;74.66;;
58197;Laerm;43999;51.660;5.616;2022-08-27T06:04:35;57.70;42.41;68.89;;
58197;Laerm;43999;51.660;5.616;2022-08-27T06:07:03;60.01;45.07;73.29;;
58197;Laerm;43999;51.660;5.616;2022-08-27T06:09:32;57.66;44.11;69.41;;
58197;Laerm;43999;51.660;5.616;2022-08-27T06:12:00;62.42;42.59;77.26;;
58197;Laerm;43999;51.660;5.616;2022-08-27T06:14:29;56.59;43.19;67.52;;
58197;Laerm;43999;51.660;5.616;2022-08-27T06:16:59;59.21;42.65;70.68;;
58197;Laerm;43999;51.660;5.616;2022-08-27T06:19:27;55.00;43.19;67.20;;
58197;Laerm;43999;51.660;5.616;2022-08-27T06:21:55;60.62;42.35;78.83;;
58197;Laerm;43999;51.660;5.616;2022-08-27T06:24:40;58.58;42.93;72.39;;
58197;Laerm;43999;51.660;5.616;2022-08-27T06:27:17;54.93;42.65;65.17;;
58197;Laerm;43999;51.660;5.616;2022-08-27T06:29:46;58.50;43.90;67.16;;
58197;Laerm;43999;51.660;5.616;2022-08-27T06:32:14;58.56;42.76;71.19;;
58197;Laerm;43999;51.660;5.616;2022-08-27T06:34:41;60.58;46.48;71.79;;
58197;Laerm;43999;51.660;5.616;2022-08-27T06:37:09;60.78;45.72;70.86;;
58197;Laerm;43999;51.660;5.616;2022-08-27T06:39:40;57.82;42.88;68.40;;
58197;Laerm;43999;51.660;5.616;2022-08-27T06:42:12;59.92;42.29;77.34;;
58197;Laerm;43999;51.660;5.616;2022-08-27T06:44:40;67.38;43.72;93.06;;
58197;Laerm;43999;51.660;5.616;2022-08-27T06:47:08;61.72;45.80;77.86;;
58197;Laerm;43999;51.660;5.616;2022-08-27T06:49:40;58.46;41.82;71.05;;
58197;Laerm;43999;51.660;5.616;2022-08-27T06:52:14;59.30;45.94;75.50;;
58197;Laerm;43999;51.660;5.616;2022-08-27T06:54:44;58.84;44.62;71.28;;
58197;Laerm;43999;51.660;5.616;2022-08-27T06:57:11;61.22;44.43;77.83;;
58197;Laerm;43999;51.660;5.616;2022-08-27T06:59:39;60.21;46.05;74.72;;
58197;Laerm;43999;51.660;5.616;2022-08-27T07:02:07;60.51;48.12;69.84;;
58197;Laerm;43999;51.660;5.616;2022-08-27T07:04:35;59.31;44.15;68.30;;
58197;Laerm;43999;51.660;5.616;2022-08-27T07:07:03;58.58;46.28;66.10;;
58197;Laerm;43999;51.660;5.616;2022-08-27T07:09:32;58.84;43.09;68.68;;
58197;Laerm;43999;51.660;5.616;2022-08-27T07:12:01;60.53;47.24;72.96;;
58197;Laerm;43999;51.660;5.616;2022-08-27T07:14:30;61.65;50.66;72.65;;
58197;Laerm;43999;51.660;5.616;2022-08-27T07:17:05;59.53;44.83;68.09;;
58197;Laerm;43999;51.660;5.616;2022-08-27T07:19:42;61.59;49.80;77.81;;
58197;Laerm;43999;51.660;5.616;2022-08-27T07:22:12;59.96;43.99;72.91;;
58197;Laerm;43999;51.660;5.616;2022-08-27T07:24:42;58.30;42.53;69.48;;
58197;Laerm;43999;51.660;5.616;2022-08-27T07:27:09;60.70;47.51;73.60;;
58197;Laerm;43999;51.660;5.616;2022-08-27T07:29:37;60.98;46.43;74.31;;
58197;Laerm;43999;51.660;5.616;2022-08-27T07:32:08;61.57;47.72;77.58;;
58197;Laerm;43999;51.660;5.616;2022-08-27T07:34:41;61.66;43.63;82.56;;
58197;Laerm;43999;51.660;5.616;2022-08-27T07:37:08;63.61;45.66;77.32;;
58197;Laerm;43999;51.660;5.616;2022-08-27T07:39:36;60.84;48.36;75.79;;
58197;Laerm;43999;51.660;5.616;2022-08-27T07:42:04;61.60;48.26;72.79;;
58197;Laerm;43999;51.660;5.616;2022-08-27T07:44:49;64.36;47.50;79.63;;
58197;Laerm;43999;51.660;5.616;2022-08-27T07:47:17;63.37;49.74;79.99;;
58197;Laerm;43999;51.660;5.616;2022-08-27T07:49:56;63.87;48.76;78.35;;
58197;Laerm;43999;51.660;5.616;2022-08-27T07:52:30;60.74;47.34;73.16;;
58197;Laerm;43999;51.660;5.616;2022-08-27T07:55:00;61.72;46.64;72.21;;
58197;Laerm;43999;51.660;5.616;2022-08-27T07:57:30;59.79;47.18;72.08;;
58197;Laerm;43999;51.660;5.616;2022-08-27T08:00:01;61.19;50.39;77.79;;
58197;Laerm;43999;51.660;5.616;2022-08-27T08:02:40;61.33;46.33;82.32;;
58197;Laerm;43999;51.660;5.616;2022-08-27T08:05:11;61.42;49.12;72.77;;
58197;Laerm;43999;51.660;5.616;2022-08-27T08:07:40;66.53;53.33;79.74;;
58197;Laerm;43999;51.660;5.616;2022-08-27T08:10:10;61.97;50.54;76.04;;
58197;Laerm;43999;51.660;5.616;2022-08-27T08:12:39;64.09;55.80;83.06;;
58197;Laerm;43999;51.660;5.616;2022-08-27T08:15:10;61.62;48.46;72.78;;
58197;Laerm;43999;51.660;5.616;2022-08-27T08:17:38;64.85;50.23;79.87;;
58197;Laerm;43999;51.660;5.616;2022-08-27T08:20:09;63.04;48.90;80.54;;
58197;Laerm;43999;51.660;5.616;2022-08-27T08:22:57;65.51;51.80;86.36;;
58197;Laerm;43999;51.660;5.616;2022-08-27T08:25:24;62.63;51.98;73.31;;
58197;Laerm;43999;51.660;5.616;2022-08-27T08:27:51;61.49;48.02;72.63;;
58197;Laerm;43999;51.660;5.616;2022-08-27T08:30:19;62.33;51.08;77.44;;
58197;Laerm;43999;51.660;5.616;2022-08-27T08:32:47;61.58;51.44;76.95;;
58197;Laerm;43999;51.660;5.616;2022-08-27T08:35:14;62.36;51.61;71.21;;
58197;Laerm;43999;51.660;5.616;2022-08-27T08:37:43;63.32;54.36;72.90;;
58197;Laerm;43999;51.660;5.616;2022-08-27T08:40:41;63.91;49.45;84.70;;
58197;Laerm;43999;51.660;5.616;2022-08-27T08:43:41;65.77;47.44;82.23;;
58197;Laerm;43999;51.660;5.616;2022-08-27T08:46:35;64.00;54.50;76.67;;
58197;Laerm;43999;51.660;5.616;2022-08-27T08:49:40;65.28;52.25;83.09;;
58197;Laerm;43999;51.660;5.616;2022-08-27T08:52:40;62.86;51.58;82.58;;
58197;Laerm;43999;51.660;5.616;2022-08-27T09:01:18;65.86;56.18;79.99;;
58197;Laerm;43999;51.660;5.616;2022-08-27T09:04:02;65.41;54.61;84.43;;
58197;Laerm;43999;51.660;5.616;2022-08-27T09:09:47;63.69;54.35;73.56;;
58197;Laerm;43999;51.660;5.616;2022-08-27T09:12:27;64.53;48.56;79.71;;
58197;Laerm;43999;51.660;5.616;2022-08-27T09:15:22;66.06;53.78;85.26;;
58197;Laerm;43999;51.660;5.616;2022-08-27T09:17:51;64.64;52.50;85.80;;
58197;Laerm;43999;51.660;5.616;2022-08-27T09:20:21;59.92;49.56;73.92;;
58197;Laerm;43999;51.660;5.616;2022-08-27T09:23:33;63.65;48.99;79.01;;
58197;Laerm;43999;51.660;5.616;2022-08-27T09:26:03;64.63;52.21;80.78;;
58197;Laerm;43999;51.660;5.616;2022-08-27T09:28:31;62.30;50.99;72.75;;
58197;Laerm;43999;51.660;5.616;2022-08-27T09:31:19;62.47;52.90;76.65;;
58197;Laerm;43999;51.660;5.616;2022-08-27T09:33:47;62.01;49.18;71.35;;
58197;Laerm;43999;51.660;5.616;2022-08-27T09:36:24;66.30;50.70;79.77;;
58197;Laerm;43999;51.660;5.616;2022-08-27T09:39:02;62.12;52.02;74.35;;
58197;Laerm;43999;51.660;5.616;2022-08-27T09:41:45;67.04;50.44;90.31;;
58197;Laerm;43999;51.660;5.616;2022-08-27T09:44:19;64.53;50.25;87.40;;
58197;Laerm;43999;51.660;5.616;2022-08-27T09:47:02;63.83;53.59;77.91;;
58197;Laerm;43999;51.660;5.616;2022-08-27T09:49:30;65.05;51.52;82.43;;
58197;Laerm;43999;51.660;5.616;2022-08-27T09:52:01;63.50;55.05;73.87;;
58197;Laerm;43999;51.660;5.616;2022-08-27T09:54:40;64.16;54.16;73.37;;
58197;Laerm;43999;51.660;5.616;2022-08-27T09:57:14;64.27;51.56;79.35;;
58197;Laerm;43999;51.660;5.616;2022-08-27T09:59:57;64.60;52.08;76.55;;
58197;Laerm;43999;51.660;5.616;2022-08-27T10:02:26;63.36;52.13;78.30;;
58197;Laerm;43999;51.660;5.616;2022-08-27T10:05:02;64.87;54.10;78.08;;
58197;Laerm;43999;51.660;5.616;2022-08-27T10:07:57;65.62;53.08;89.88;;
58197;Laerm;43999;51.660;5.616;2022-08-27T10:19:59;64.30;53.89;87.26;;
58197;Laerm;43999;51.660;5.616;2022-08-27T10:23:03;66.12;52.91;83.46;;
58197;Laerm;43999;51.660;5.616;2022-08-27T10:29:20;64.57;50.50;85.14;;
58197;Laerm;43999;51.660;5.616;2022-08-27T10:35:21;63.20;52.38;87.22;;
58197;Laerm;43999;51.660;5.616;2022-08-27T10:41:28;65.28;51.16;75.14;;
58197;Laerm;43999;51.660;5.616;2022-08-27T10:50:14;64.91;55.23;75.61;;
58197;Laerm;43999;51.660;5.616;2022-08-27T10:56:08;67.09;56.38;83.38;;
58197;Laerm;43999;51.660;5.616;2022-08-27T11:05:09;64.25;53.73;78.43;;
58197;Laerm;43999;51.660;5.616;2022-08-27T11:07:56;62.26;51.55;75.64;;
58197;Laerm;43999;51.660;5.616;2022-08-27T11:10:38;67.18;52.56;94.93;;
58197;Laerm;43999;51.660;5.616;2022-08-27T11:13:48;63.99;55.16;74.78;;
58197;Laerm;43999;51.660;5.616;2022-08-27T11:16:32;65.65;53.82;80.12;;
58197;Laerm;43999;51.660;5.616;2022-08-27T11:19:14;64.68;53.34;76.74;;
58197;Laerm;43999;51.660;5.616;2022-08-27T11:24:58;65.34;51.77;81.11;;
58197;Laerm;43999;51.660;5.616;2022-08-27T11:27:32;63.14;51.58;76.75;;
58197;Laerm;43999;51.660;5.616;2022-08-27T11:30:19;63.56;57.03;80.08;;
58197;Laerm;43999;51.660;5.616;2022-08-27T11:39:03;63.06;55.11;73.89;;
58197;Laerm;43999;51.660;5.616;2022-08-27T11:41:51;63.80;52.18;75.45;;
58197;Laerm;43999;51.660;5.616;2022-08-27T11:44:25;64.28;52.02;79.11;;
58197;Laerm;43999;51.660;5.616;2022-08-27T11:47:22;64.38;54.21;76.63;;
58197;Laerm;43999;51.660;5.616;2022-08-27T11:50:05;61.50;51.83;85.71;;
58197;Laerm;43999;51.660;5.616;2022-08-27T11:52:40;64.11;53.36;76.79;;
58197;Laerm;43999;51.660;5.616;2022-08-27T12:00:39;64.05;54.26;76.47;;
58197;Laerm;43999;51.660;5.616;2022-08-27T12:03:32;64.24;52.99;74.45;;
58197;Laerm;43999;51.660;5.616;2022-08-27T12:06:19;64.34;53.60;77.87;;
58197;Laerm;43999;51.660;5.616;2022-08-27T12:08:51;64.02;56.34;77.49;;
58197;Laerm;43999;51.660;5.616;2022-08-27T12:14:51;65.00;54.82;78.78;;
58197;Laerm;43999;51.660;5.616;2022-08-27T12:20:13;65.06;54.09;77.81;;
58197;Laerm;43999;51.660;5.616;2022-08-27T12:26:35;63.51;49.32;73.80;;
58197;Laerm;43999;51.660;5.616;2022-08-27T12:29:40;62.90;47.67;76.57;;
58197;Laerm;43999;51.660;5.616;2022-08-27T12:32:27;64.17;48.52;80.37;;
58197;Laerm;43999;51.660;5.616;2022-08-27T12:35:11;64.14;53.31;77.47;;
58197;Laerm;43999;51.660;5.616;2022-08-27T12:38:18;61.37;48.66;73.42;;
58197;Laerm;43999;51.660;5.616;2022-08-27T12:40:55;63.61;55.15;76.50;;
58197;Laerm;43999;51.660;5.616;2022-08-27T12:43:29;63.81;52.62;82.07;;
58197;Laerm;43999;51.660;5.616;2022-08-27T12:46:16;63.23;52.19;80.49;;
58197;Laerm;43999;51.660;5.616;2022-08-27T12:48:56;64.80;55.62;75.42;;
58197;Laerm;43999;51.660;5.616;2022-08-27T12:51:39;65.25;54.41;77.03;;
58197;Laerm;43999;51.660;5.616;2022-08-27T12:55:11;62.77;52.60;86.79;;
58197;Laerm;43999;51.660;5.616;2022-08-27T12:58:19;63.95;52.67;74.64;;
58197;Laerm;43999;51.660;5.616;2022-08-27T13:01:25;64.06;52.73;77.27;;
58197;Laerm;43999;51.660;5.616;2022-08-27T13:03:57;64.02;54.66;72.36;;
58197;Laerm;43999;51.660;5.616;2022-08-27T13:06:35;64.94;55.46;75.93;;
58197;Laerm;43999;51.660;5.616;2022-08-27T13:09:10;63.93;52.58;83.24;;
58197;Laerm;43999;51.660;5.616;2022-08-27T13:11:49;65.00;54.85;79.88;;
58197;Laerm;43999;51.660;5.616;2022-08-27T13:14:26;64.52;55.60;84.45;;
58197;Laerm;43999;51.660;5.616;2022-08-27T13:17:07;63.43;52.17;76.94;;
58197;Laerm;43999;51.660;5.616;2022-08-27T13:19:56;63.12;52.18;74.61;;
58197;Laerm;43999;51.660;5.616;2022-08-27T13:22:36;65.48;51.75;77.12;;
58197;Laerm;43999;51.660;5.616;2022-08-27T13:25:20;64.96;53.82;79.98;;
58197;Laerm;43999;51.660;5.616;2022-08-27T13:28:00;67.98;54.77;87.61;;
58197;Laerm;43999;51.660;5.616;2022-08-27T13:30:40;62.08;51.52;71.24;;
58197;Laerm;43999;51.660;5.616;2022-08-27T13:33:32;62.83;55.63;87.63;;
58197;Laerm;43999;51.660;5.616;2022-08-27T13:36:01;62.89;52.38;73.55;;
58197;Laerm;43999;51.660;5.616;2022-08-27T13:38:36;63.98;53.51;77.30;;
58197;Laerm;43999;51.660;5.616;2022-08-27T13:41:12;66.18;54.16;80.29;;
58197;Laerm;43999;51.660;5.616;2022-08-27T13:43:48;63.59;54.67;72.25;;
58197;Laerm;43999;51.660;5.616;2022-08-27T13:46:23;63.70;52.98;79.69;;
58197;Laerm;43999;51.660;5.616;2022-08-27T13:48:56;63.48;52.55;74.85;;
58197;Laerm;43999;51.660;5.616;2022-08-27T13:51:31;66.90;53.92;89.08;;
58197;Laerm;43999;51.660;5.616;2022-08-27T13:54:08;62.21;47.54;74.62;;
58197;Laerm;43999;51.660;5.616;2022-08-27T13:59:27;63.93;54.16;78.50;;
58197;Laerm;43999;51.660;5.616;2022-08-27T14:05:01;63.41;48.96;84.93;;
58197;Laerm;43999;51.660;5.616;2022-08-27T14:07:36;62.12;52.20;74.03;;
58197;Laerm;43999;51.660;5.616;2022-08-27T14:10:32;66.58;48.52;85.27;;
58197;Laerm;43999;51.660;5.616;2022-08-27T14:13:08;61.45;50.56;75.43;;
58197;Laerm;43999;51.660;5.616;2022-08-27T14:15:47;67.16;54.23;81.92;;
58197;Laerm;43999;51.660;5.616;2022-08-27T14:18:33;61.67;47.16;76.53;;
58197;Laerm;43999;51.660;5.616;2022-08-27T14:21:22;68.30;51.05;84.53;;
58197;Laerm;43999;51.660;5.616;2022-08-27T14:23:51;66.02;49.33;83.07;;
58197;Laerm;43999;51.660;5.616;2022-08-27T14:26:20;64.53;53.08;77.90;;
58197;Laerm;43999;51.660;5.616;2022-08-27T14:28:47;65.31;53.72;78.18;;
58197;Laerm;43999;51.660;5.616;2022-08-27T14:31:15;61.67;49.03;81.33;;
58197;Laerm;43999;51.660;5.616;2022-08-27T14:33:43;62.89;51.03;70.05;;
58197;Laerm;43999;51.660;5.616;2022-08-27T14:36:14;62.86;50.69;72.19;;
58197;Laerm;43999;51.660;5.616;2022-08-27T14:38:47;63.95;50.85;81.55;;
58197;Laerm;43999;51.660;5.616;2022-08-27T14:41:16;61.91;47.38;73.80;;
58197;Laerm;43999;51.660;5.616;2022-08-27T14:43:48;68.09;56.73;85.78;;
58197;Laerm;43999;51.660;5.616;2022-08-27T14:46:32;63.87;52.66;74.86;;
58197;Laerm;43999;51.660;5.616;2022-08-27T14:49:22;62.99;50.91;79.68;;
58197;Laerm;43999;51.660;5.616;2022-08-27T14:51:51;62.72;50.01;73.98;;
58197;Laerm;43999;51.660;5.616;2022-08-27T14:54:19;63.28;50.79;73.36;;
58197;Laerm;43999;51.660;5.616;2022-08-27T14:56:46;62.72;52.80;74.85;;
58197;Laerm;43999;51.660;5.616;2022-08-27T14:59:16;61.66;49.69;72.06;;
58197;Laerm;43999;51.660;5.616;2022-08-27T15:01:44;62.73;50.16;71.74;;
58197;Laerm;43999;51.660;5.616;2022-08-27T15:04:12;64.71;52.84;77.95;;
58197;Laerm;43999;51.660;5.616;2022-08-27T15:06:40;63.89;52.59;76.70;;
58197;Laerm;43999;51.660;5.616;2022-08-27T15:09:07;65.86;51.27;82.31;;
58197;Laerm;43999;51.660;5.616;2022-08-27T15:11:37;66.69;55.31;79.95;;
58197;Laerm;43999;51.660;5.616;2022-08-27T15:14:28;64.33;48.87;76.52;;
58197;Laerm;43999;51.660;5.616;2022-08-27T15:16:58;66.06;55.94;85.03;;
58197;Laerm;43999;51.660;5.616;2022-08-27T15:19:28;66.73;51.62;87.59;;
58197;Laerm;43999;51.660;5.616;2022-08-27T15:22:12;62.89;54.48;78.31;;
58197;Laerm;43999;51.660;5.616;2022-08-27T15:24:50;63.21;52.21;74.33;;
58197;Laerm;43999;51.660;5.616;2022-08-27T15:27:20;61.32;48.80;76.03;;
58197;Laerm;43999;51.660;5.616;2022-08-27T15:29:48;63.78;53.18;77.51;;
58197;Laerm;43999;51.660;5.616;2022-08-27T15:32:28;63.49;52.20;76.47;;
58197;Laerm;43999;51.660;5.616;2022-08-27T15:35:00;63.06;53.37;78.19;;
58197;Laerm;43999;51.660;5.616;2022-08-27T15:37:31;63.82;50.91;73.84;;
58197;Laerm;43999;51.660;5.616;2022-08-27T15:39:59;72.27;51.42;104.59;;
58197;Laerm;43999;51.660;5.616;2022-08-27T15:42:27;65.46;48.60;85.12;;
58197;Laerm;43999;51.660;5.616;2022-08-27T15:44:56;60.77;48.45;76.02;;
58197;Laerm;43999;51.660;5.616;2022-08-27T15:47:25;62.94;48.69;76.43;;